createdAt,value
2023-03-22T00:01:14.588Z,4.10
2023-03-22T00:03:42.786Z,4.60
2023-03-22T00:06:10.457Z,4.47
2023-03-22T00:08:37.769Z,4.10
2023-03-22T00:11:06.095Z,4.10
2023-03-22T00:13:35.706Z,4.13
2023-03-22T00:16:03.787Z,4.05
2023-03-22T00:18:31.602Z,3.80
2023-03-22T00:20:59.975Z,3.80
2023-03-22T00:23:28.422Z,3.70
2023-03-22T00:25:56.404Z,3.65
2023-03-22T00:28:24.775Z,3.72
2023-03-22T00:30:54.783Z,4.10
2023-03-22T00:33:22.187Z,4.10
2023-03-22T00:35:54.613Z,3.85
2023-03-22T00:38:29.950Z,3.30
2023-03-22T00:41:08.998Z,3.20
2023-03-22T00:43:36.310Z,3.15
2023-03-22T00:46:03.513Z,3.20
2023-03-22T00:48:30.706Z,3.50
2023-03-22T00:50:58.015Z,3.20
2023-03-22T00:53:26.241Z,3.65
2023-03-22T00:55:53.460Z,3.22
2023-03-22T00:58:20.965Z,3.03
2023-03-22T01:00:48.746Z,3.08
2023-03-22T01:03:16.351Z,2.80
2023-03-22T01:05:46.290Z,3.10
2023-03-22T01:08:15.030Z,3.30
2023-03-22T01:10:44.187Z,3.30
2023-03-22T01:13:12.708Z,3.28
2023-03-22T01:15:39.998Z,3.22
2023-03-22T01:18:08.011Z,2.97
2023-03-22T01:20:36.379Z,3.35
2023-03-22T01:23:04.385Z,3.00
2023-03-22T01:25:31.649Z,3.30
2023-03-22T01:27:59.306Z,3.17
2023-03-22T01:30:26.521Z,3.40
2023-03-22T01:32:53.689Z,2.90
2023-03-22T01:35:21.037Z,2.90
2023-03-22T01:37:48.335Z,3.15
2023-03-22T01:40:16.376Z,2.83
2023-03-22T01:42:43.751Z,3.10
2023-03-22T01:45:13.772Z,3.30
2023-03-22T01:47:46.186Z,2.90
2023-03-22T01:50:14.375Z,2.95
2023-03-22T01:52:41.801Z,2.95
2023-03-22T01:55:09.602Z,3.10
2023-03-22T01:57:38.108Z,3.00
2023-03-22T02:00:13.415Z,2.67
2023-03-22T02:02:40.687Z,2.80
2023-03-22T02:05:09.137Z,3.28
2023-03-22T02:07:38.621Z,2.90
2023-03-22T02:10:13.930Z,3.15
2023-03-22T02:13:15.130Z,2.97
2023-03-22T02:16:10.741Z,3.17
2023-03-22T02:19:22.322Z,3.30
2023-03-22T02:22:22.064Z,3.05
2023-03-22T02:25:25.578Z,3.05
2023-03-22T02:28:38.323Z,3.00
2023-03-22T02:31:24.153Z,2.90
2023-03-22T02:34:21.865Z,3.15
2023-03-22T02:37:20.374Z,3.10
2023-03-22T02:40:14.710Z,3.70
2023-03-22T02:42:56.499Z,2.78
2023-03-22T02:45:33.977Z,3.22
2023-03-22T02:48:32.588Z,3.28
2023-03-22T02:51:11.836Z,2.92
2023-03-22T02:54:03.300Z,3.03
2023-03-22T02:56:52.141Z,3.17
2023-03-22T02:59:20.384Z,3.70
2023-03-22T03:01:54.923Z,3.90
2023-03-22T03:04:27.758Z,4.43
2023-03-22T03:07:00.893Z,3.47
2023-03-22T03:09:29.334Z,3.85
2023-03-22T03:11:56.455Z,3.40
2023-03-22T03:14:28.740Z,3.72
2023-03-22T03:17:25.851Z,3.28
2023-03-22T03:19:58.390Z,3.20
2023-03-22T03:22:57.860Z,3.20
2023-03-22T03:25:43.742Z,3.10
2023-03-22T03:28:38.919Z,2.95
2023-03-22T03:31:32.392Z,3.03
2023-03-22T03:34:13.406Z,3.13
2023-03-22T03:36:46.229Z,3.17
2023-03-22T03:39:15.923Z,2.80
2023-03-22T03:41:46.835Z,3.15
2023-03-22T03:44:15.578Z,3.05
2023-03-22T03:46:44.446Z,3.58
2023-03-22T03:49:14.513Z,2.78
2023-03-22T03:51:55.483Z,2.88
2023-03-22T03:54:23.336Z,3.15
2023-03-22T03:56:51.049Z,3.22
2023-03-22T03:59:19.464Z,2.85
2023-03-22T04:01:50.659Z,3.03
2023-03-22T04:04:26.580Z,3.08
2023-03-22T04:07:02.013Z,2.80
2023-03-22T04:09:32.203Z,3.22
2023-03-22T04:11:59.568Z,3.10
2023-03-22T04:14:27.084Z,3.05
2023-03-22T04:16:55.695Z,2.88
2023-03-22T04:19:23.398Z,3.65
2023-03-22T04:21:53.334Z,3.20
2023-03-22T04:24:23.423Z,3.10
2023-03-22T04:26:50.787Z,3.20
2023-03-22T04:29:17.936Z,3.08
2023-03-22T04:31:45.848Z,3.15
2023-03-22T04:34:12.965Z,3.00
2023-03-22T04:36:40.111Z,2.83
2023-03-22T04:39:10.867Z,2.55
2023-03-22T04:41:38.358Z,3.20
2023-03-22T04:44:07.111Z,3.03
2023-03-22T04:46:36.696Z,2.75
2023-03-22T04:49:05.315Z,3.30
2023-03-22T04:51:32.656Z,2.55
2023-03-22T04:54:00.614Z,2.88
2023-03-22T04:56:27.847Z,2.83
2023-03-22T04:58:55.143Z,2.80
2023-03-22T05:01:22.514Z,3.22
2023-03-22T05:03:49.659Z,3.15
2023-03-22T05:06:17.224Z,2.90
2023-03-22T05:08:44.506Z,3.33
2023-03-22T05:11:17.083Z,3.10
2023-03-22T05:13:44.306Z,3.90
2023-03-22T05:16:11.893Z,3.97
2023-03-22T05:18:42.619Z,3.63
2023-03-22T05:21:16.724Z,3.45
2023-03-22T05:23:45.228Z,3.40
2023-03-22T05:26:15.729Z,3.00
2023-03-22T05:28:44.298Z,2.60
2023-03-22T05:31:14.874Z,3.80
2023-03-22T05:33:42.462Z,3.50
2023-03-22T05:36:11.445Z,3.70
2023-03-22T05:38:38.754Z,3.42
2023-03-22T05:41:06.149Z,3.03
2023-03-22T05:43:33.718Z,3.28
2023-03-22T05:46:01.175Z,3.17
2023-03-22T05:48:28.264Z,3.35
2023-03-22T05:50:55.617Z,3.17
2023-03-22T05:53:22.837Z,3.47
2023-03-22T05:55:49.976Z,3.42
2023-03-22T05:58:19.333Z,3.50
2023-03-22T06:00:49.953Z,3.30
2023-03-22T06:03:18.390Z,3.47
2023-03-22T06:05:46.627Z,3.50
2023-03-22T06:08:13.755Z,4.47
2023-03-22T06:10:40.921Z,3.70
2023-03-22T06:13:08.335Z,4.40
2023-03-22T06:15:35.578Z,3.75
2023-03-22T06:18:02.603Z,3.50
2023-03-22T06:20:29.580Z,4.22
2023-03-22T06:22:56.648Z,4.32
2023-03-22T06:25:23.601Z,3.67
2023-03-22T06:27:50.505Z,4.05
2023-03-22T06:30:18.274Z,3.35
2023-03-22T06:32:45.653Z,3.30
2023-03-22T06:35:12.718Z,3.50
2023-03-22T06:37:39.730Z,3.60
2023-03-22T06:40:07.396Z,3.53
2023-03-22T06:42:34.479Z,3.20
2023-03-22T06:45:01.610Z,3.33
2023-03-22T06:47:29.575Z,3.60
2023-03-22T06:49:56.688Z,3.90
2023-03-22T06:52:23.735Z,3.58
2023-03-22T06:54:50.841Z,3.78
2023-03-22T06:57:17.795Z,3.63
2023-03-22T06:59:44.843Z,3.53
2023-03-22T07:02:14.821Z,3.33
2023-03-22T07:04:41.913Z,3.97
2023-03-22T07:07:08.947Z,3.92
2023-03-22T07:09:36.063Z,4.30
2023-03-22T07:12:05.077Z,3.50
2023-03-22T07:14:32.771Z,3.95
2023-03-22T07:17:00.092Z,4.65
2023-03-22T07:19:27.689Z,4.18
2023-03-22T07:21:54.741Z,3.88
2023-03-22T07:24:21.699Z,4.35
2023-03-22T07:26:48.684Z,4.15
2023-03-22T07:29:15.980Z,3.28
2023-03-22T07:31:43.009Z,3.70
2023-03-22T07:34:09.937Z,4.00
2023-03-22T07:36:38.271Z,3.95
2023-03-22T07:39:06.006Z,3.30
2023-03-22T07:41:33.268Z,3.53
2023-03-22T07:44:16.701Z,3.90
2023-03-22T07:46:44.626Z,3.30
2023-03-22T07:49:11.769Z,4.85
2023-03-22T07:51:38.752Z,4.75
2023-03-22T07:54:07.694Z,3.80
2023-03-22T07:56:35.713Z,3.63
2023-03-22T07:59:02.989Z,3.90
2023-03-22T08:01:30.048Z,4.15
2023-03-22T08:03:57.026Z,4.20
2023-03-22T08:06:23.943Z,4.13
2023-03-22T08:12:08.834Z,3.13
2023-03-22T08:14:37.343Z,3.03
2023-03-22T08:17:05.680Z,3.30
2023-03-22T08:19:33.820Z,3.30
2023-03-22T08:22:01.123Z,3.92
2023-03-22T08:24:28.052Z,3.20
2023-03-22T08:26:55.131Z,3.30
2023-03-22T08:29:23.558Z,3.30
2023-03-22T08:31:51.228Z,3.28
2023-03-22T08:34:18.583Z,3.15
2023-03-22T08:36:46.238Z,3.42
2023-03-22T08:39:13.642Z,3.28
2023-03-22T08:41:40.647Z,3.30
2023-03-22T08:44:07.654Z,2.88
2023-03-22T08:46:34.786Z,3.45
2023-03-22T08:49:02.766Z,3.63
2023-03-22T08:51:31.347Z,3.55
2023-03-22T08:54:00.273Z,3.53
2023-03-22T08:58:54.560Z,3.50
2023-03-22T09:01:21.919Z,3.70
2023-03-22T09:03:49.062Z,3.65
2023-03-22T09:06:16.195Z,3.30
2023-03-22T09:08:43.233Z,3.70
2023-03-22T09:11:11.067Z,3.10
2023-03-22T09:13:39.202Z,3.00
2023-03-22T09:16:08.848Z,2.83
2023-03-22T09:18:37.515Z,3.35
2023-03-22T09:21:05.634Z,3.22
2023-03-22T09:23:34.172Z,3.17
2023-03-22T09:26:02.362Z,3.33
2023-03-22T09:28:30.345Z,3.10
2023-03-22T09:31:06.810Z,3.67
2023-03-22T09:33:34.967Z,3.05
2023-03-22T09:36:02.157Z,3.03
2023-03-22T09:38:32.541Z,3.15
2023-03-22T09:41:04.634Z,2.75
2023-03-22T09:43:42.210Z,3.13
2023-03-22T09:46:15.789Z,3.08
2023-03-22T09:48:45.022Z,3.00
2023-03-22T09:51:31.554Z,2.90
2023-03-22T09:53:58.784Z,3.63
2023-03-22T09:56:29.714Z,2.90
2023-03-22T09:59:08.647Z,2.70
2023-03-22T10:01:53.528Z,3.17
2023-03-22T10:04:30.150Z,4.45
2023-03-22T10:07:07.119Z,3.20
2023-03-22T10:09:56.073Z,3.72
2023-03-22T10:12:30.916Z,3.25
2023-03-22T10:15:14.478Z,2.95
2023-03-22T10:17:45.524Z,3.15
2023-03-22T10:20:21.286Z,3.40
2023-03-22T10:22:52.770Z,3.67
2023-03-22T10:25:28.035Z,3.22
2023-03-22T10:27:55.137Z,2.50
2023-03-22T10:30:26.053Z,2.80
2023-03-22T10:32:58.376Z,3.08
2023-03-22T10:35:26.155Z,3.20
2023-03-22T10:37:55.990Z,2.80
2023-03-22T10:40:41.234Z,2.92
2023-03-22T10:43:22.350Z,3.58
2023-03-22T10:45:53.147Z,2.88
2023-03-22T10:48:33.307Z,3.38
2023-03-22T10:51:01.974Z,3.05
2023-03-22T10:53:46.573Z,3.58
2023-03-22T10:56:18.775Z,3.45
2023-03-22T10:58:50.237Z,3.58
2023-03-22T11:01:32.874Z,3.92
2023-03-22T11:04:10.232Z,4.13
2023-03-22T11:06:49.383Z,3.80
2023-03-22T11:09:21.717Z,4.18
2023-03-22T11:11:55.094Z,4.53
2023-03-22T11:14:28.239Z,4.45
2023-03-22T11:16:57.649Z,4.32
2023-03-22T11:19:33.509Z,4.07
2023-03-22T11:22:02.606Z,4.20
2023-03-22T11:24:32.886Z,4.07
2023-03-22T11:27:05.979Z,4.65
2023-03-22T11:29:45.386Z,4.30
2023-03-22T11:32:27.802Z,4.85
2023-03-22T11:35:11.059Z,4.05
2023-03-22T11:37:46.904Z,5.13
2023-03-22T11:40:19.728Z,4.47
2023-03-22T11:42:48.129Z,4.55
2023-03-22T11:45:29.505Z,4.30
2023-03-22T11:48:05.453Z,4.55
2023-03-22T11:50:35.900Z,4.95
2023-03-22T11:53:04.468Z,4.30
2023-03-22T11:55:34.587Z,5.15
2023-03-22T11:58:04.129Z,4.63
2023-03-22T12:00:37.356Z,5.13
2023-03-22T12:03:21.914Z,4.70
2023-03-22T12:05:51.594Z,4.32
2023-03-22T12:08:39.630Z,5.78
2023-03-22T12:11:11.394Z,4.75
2023-03-22T12:13:48.706Z,5.68
2023-03-22T12:16:24.216Z,5.63
2023-03-22T12:19:19.704Z,5.38
2023-03-22T12:21:50.059Z,5.43
2023-03-22T12:24:35.160Z,5.55
2023-03-22T12:27:20.876Z,5.68
2023-03-22T12:29:59.421Z,5.47
2023-03-22T12:32:30.866Z,5.43
2023-03-22T12:35:16.106Z,6.03
2023-03-22T12:37:48.182Z,5.00
2023-03-22T12:40:31.748Z,5.38
2023-03-22T12:43:16.626Z,6.32
2023-03-22T12:45:49.160Z,5.85
2023-03-22T12:48:20.982Z,5.90
2023-03-22T12:51:04.392Z,5.63
2023-03-22T12:53:42.453Z,5.20
2023-03-22T12:56:25.328Z,5.15
2023-03-22T12:58:57.922Z,5.50
2023-03-22T13:01:53.705Z,6.20
2023-03-22T13:04:31.754Z,5.75
2023-03-22T13:07:27.476Z,5.50
2023-03-22T13:09:54.876Z,5.40
2023-03-22T13:12:21.848Z,5.63
2023-03-22T13:15:00.350Z,5.43
2023-03-22T13:17:27.572Z,5.47
2023-03-22T13:20:21.532Z,7.65
2023-03-22T13:22:48.636Z,6.13
2023-03-22T13:25:21.252Z,5.25
2023-03-22T13:27:58.697Z,5.93
2023-03-22T13:30:35.589Z,6.25
2023-03-22T13:33:08.751Z,5.68
2023-03-22T13:35:56.938Z,5.68
2023-03-22T13:38:31.673Z,6.43
2023-03-22T13:41:31.814Z,5.78
2023-03-22T13:44:02.969Z,5.47
2023-03-22T13:46:36.910Z,6.43
2023-03-22T13:49:04.326Z,5.63
2023-03-22T13:51:32.745Z,5.07
2023-03-22T13:54:07.367Z,5.00
2023-03-22T13:57:00.921Z,4.93
2023-03-22T14:02:35.814Z,5.15
2023-03-22T14:05:23.489Z,5.47
2023-03-22T14:07:58.263Z,5.10
2023-03-22T14:10:33.431Z,5.35
2023-03-22T14:13:24.369Z,5.43
2023-03-22T14:15:55.776Z,4.60
2023-03-22T14:18:34.361Z,5.35
2023-03-22T14:21:07.726Z,4.38
